sensor_id;sensor_type;location;lat;lon;timestamp;P1;durP1;ratioP1;P2;durP2;ratioP2
1682;SDS011;13252;53.596;10.060;2023-07-24T16:01:13;8.73;;;5.10;;
1682;SDS011;13252;53.596;10.060;2023-07-24T16:03:41;11.17;;;5.10;;
1682;SDS011;13252;53.596;10.060;2023-07-24T16:06:09;10.20;;;6.10;;
1682;SDS011;13252;53.596;10.060;2023-07-24T16:08:37;8.20;;;5.30;;
1682;SDS011;13252;53.596;10.060;2023-07-24T16:11:05;7.00;;;5.17;;
1682;SDS011;13252;53.596;10.060;2023-07-24T16:13:36;7.17;;;5.07;;
1682;SDS011;13252;53.596;10.060;2023-07-24T16:16:05;10.70;;;7.00;;
1682;SDS011;13252;53.596;10.060;2023-07-24T16:18:35;8.90;;;5.83;;
1682;SDS011;13252;53.596;10.060;2023-07-24T16:21:02;7.20;;;6.00;;
1682;SDS011;13252;53.596;10.060;2023-07-24T16:23:30;7.67;;;5.90;;
1682;SDS011;13252;53.596;10.060;2023-07-24T16:25:58;11.43;;;6.47;;
1682;SDS011;13252;53.596;10.060;2023-07-24T16:28:25;12.60;;;7.20;;
1682;SDS011;13252;53.596;10.060;2023-07-24T16:30:53;15.07;;;7.27;;
1682;SDS011;13252;53.596;10.060;2023-07-24T16:33:24;14.23;;;8.60;;
1682;SDS011;13252;53.596;10.060;2023-07-24T16:35:53;9.97;;;8.43;;
1682;SDS011;13252;53.596;10.060;2023-07-24T16:38:21;15.20;;;8.03;;
1682;SDS011;13252;53.596;10.060;2023-07-24T16:40:48;8.47;;;7.63;;
1682;SDS011;13252;53.596;10.060;2023-07-24T16:43:17;10.93;;;8.40;;
1682;SDS011;13252;53.596;10.060;2023-07-24T16:45:45;9.07;;;8.17;;
1682;SDS011;13252;53.596;10.060;2023-07-24T16:48:18;13.27;;;9.37;;
1682;SDS011;13252;53.596;10.060;2023-07-24T16:50:46;9.40;;;7.93;;
1682;SDS011;13252;53.596;10.060;2023-07-24T16:53:15;10.90;;;8.37;;
1682;SDS011;13252;53.596;10.060;2023-07-24T16:55:43;10.47;;;7.80;;
1682;SDS011;13252;53.596;10.060;2023-07-24T16:58:10;9.20;;;7.73;;
1682;SDS011;13252;53.596;10.060;2023-07-24T17:00:38;8.97;;;7.60;;
1682;SDS011;13252;53.596;10.060;2023-07-24T17:03:06;10.10;;;7.00;;
1682;SDS011;13252;53.596;10.060;2023-07-24T17:05:33;6.93;;;5.30;;
1682;SDS011;13252;53.596;10.060;2023-07-24T17:08:03;15.30;;;5.93;;
1682;SDS011;13252;53.596;10.060;2023-07-24T17:10:40;7.03;;;6.07;;
1682;SDS011;13252;53.596;10.060;2023-07-24T17:13:08;7.43;;;6.00;;
1682;SDS011;13252;53.596;10.060;2023-07-24T17:15:36;5.80;;;4.57;;
1682;SDS011;13252;53.596;10.060;2023-07-24T17:18:04;5.53;;;4.40;;
1682;SDS011;13252;53.596;10.060;2023-07-24T17:20:32;5.80;;;5.20;;
1682;SDS011;13252;53.596;10.060;2023-07-24T17:23:00;4.73;;;4.00;;
1682;SDS011;13252;53.596;10.060;2023-07-24T17:25:27;5.10;;;3.97;;
1682;SDS011;13252;53.596;10.060;2023-07-24T17:27:57;6.60;;;5.23;;
1682;SDS011;13252;53.596;10.060;2023-07-24T17:30:24;9.10;;;5.40;;
1682;SDS011;13252;53.596;10.060;2023-07-24T17:32:52;8.50;;;6.67;;
1682;SDS011;13252;53.596;10.060;2023-07-24T17:35:20;8.03;;;5.60;;
1682;SDS011;13252;53.596;10.060;2023-07-24T17:37:48;9.93;;;6.70;;
1682;SDS011;13252;53.596;10.060;2023-07-24T17:40:16;9.20;;;7.70;;
1682;SDS011;13252;53.596;10.060;2023-07-24T17:42:44;9.63;;;7.23;;
1682;SDS011;13252;53.596;10.060;2023-07-24T17:45:13;11.40;;;9.27;;
1682;SDS011;13252;53.596;10.060;2023-07-24T17:47:41;8.43;;;7.43;;
1682;SDS011;13252;53.596;10.060;2023-07-24T17:50:09;10.00;;;6.10;;
1682;SDS011;13252;53.596;10.060;2023-07-24T17:52:37;6.83;;;5.80;;
1682;SDS011;13252;53.596;10.060;2023-07-24T17:55:05;10.40;;;6.30;;
1682;SDS011;13252;53.596;10.060;2023-07-24T17:57:34;8.33;;;5.07;;
1682;SDS011;13252;53.596;10.060;2023-07-24T18:00:02;6.60;;;5.80;;
1682;SDS011;13252;53.596;10.060;2023-07-24T18:02:32;6.87;;;5.90;;
1682;SDS011;13252;53.596;10.060;2023-07-24T18:05:00;7.77;;;5.70;;
1682;SDS011;13252;53.596;10.060;2023-07-24T18:07:28;11.90;;;6.67;;
1682;SDS011;13252;53.596;10.060;2023-07-24T18:09:56;11.30;;;7.40;;
1682;SDS011;13252;53.596;10.060;2023-07-24T18:12:24;8.43;;;6.20;;
1682;SDS011;13252;53.596;10.060;2023-07-24T18:14:52;10.60;;;6.20;;
1682;SDS011;13252;53.596;10.060;2023-07-24T18:17:20;7.63;;;5.60;;
1682;SDS011;13252;53.596;10.060;2023-07-24T18:19:49;7.63;;;6.70;;
1682;SDS011;13252;53.596;10.060;2023-07-24T18:22:17;12.87;;;7.20;;
1682;SDS011;13252;53.596;10.060;2023-07-24T18:24:47;12.20;;;9.43;;
1682;SDS011;13252;53.596;10.060;2023-07-24T18:27:21;9.63;;;7.07;;
1682;SDS011;13252;53.596;10.060;2023-07-24T18:29:52;10.73;;;6.77;;
1682;SDS011;13252;53.596;10.060;2023-07-24T18:32:20;9.50;;;7.63;;
1682;SDS011;13252;53.596;10.060;2023-07-24T18:34:51;13.00;;;7.83;;
1682;SDS011;13252;53.596;10.060;2023-07-24T18:37:19;10.17;;;7.47;;
1682;SDS011;13252;53.596;10.060;2023-07-24T18:39:47;12.77;;;10.20;;
1682;SDS011;13252;53.596;10.060;2023-07-24T18:42:15;10.80;;;9.43;;
1682;SDS011;13252;53.596;10.060;2023-07-24T18:44:43;10.53;;;8.23;;
1682;SDS011;13252;53.596;10.060;2023-07-24T18:47:11;11.87;;;9.70;;
1682;SDS011;13252;53.596;10.060;2023-07-24T18:49:41;14.37;;;9.37;;
1682;SDS011;13252;53.596;10.060;2023-07-24T18:52:11;7.87;;;7.07;;
1682;SDS011;13252;53.596;10.060;2023-07-24T18:54:38;10.00;;;7.90;;
1682;SDS011;13252;53.596;10.060;2023-07-24T18:57:06;8.30;;;7.50;;
1682;SDS011;13252;53.596;10.060;2023-07-24T18:59:35;8.57;;;7.67;;
1682;SDS011;13252;53.596;10.060;2023-07-24T19:02:03;9.57;;;8.00;;
1682;SDS011;13252;53.596;10.060;2023-07-24T19:04:31;10.00;;;7.63;;
1682;SDS011;13252;53.596;10.060;2023-07-24T19:06:59;10.70;;;7.60;;
1682;SDS011;13252;53.596;10.060;2023-07-24T19:09:29;11.70;;;7.40;;
1682;SDS011;13252;53.596;10.060;2023-07-24T19:11:57;10.20;;;7.50;;
1682;SDS011;13252;53.596;10.060;2023-07-24T19:14:24;10.50;;;8.27;;
1682;SDS011;13252;53.596;10.060;2023-07-24T19:16:52;7.50;;;6.70;;
1682;SDS011;13252;53.596;10.060;2023-07-24T19:19:20;7.73;;;6.90;;
1682;SDS011;13252;53.596;10.060;2023-07-24T19:21:48;9.90;;;7.13;;
1682;SDS011;13252;53.596;10.060;2023-07-24T19:24:17;8.83;;;6.80;;
1682;SDS011;13252;53.596;10.060;2023-07-24T19:26:46;9.90;;;6.93;;
1682;SDS011;13252;53.596;10.060;2023-07-24T19:29:13;9.90;;;7.27;;
1682;SDS011;13252;53.596;10.060;2023-07-24T19:31:41;8.63;;;6.73;;
1682;SDS011;13252;53.596;10.060;2023-07-24T19:34:10;9.63;;;7.40;;
1682;SDS011;13252;53.596;10.060;2023-07-24T19:36:37;7.63;;;6.80;;
1682;SDS011;13252;53.596;10.060;2023-07-24T19:39:05;10.03;;;7.30;;
1682;SDS011;13252;53.596;10.060;2023-07-24T19:41:33;8.13;;;6.87;;
1682;SDS011;13252;53.596;10.060;2023-07-24T19:44:02;8.80;;;7.27;;
1682;SDS011;13252;53.596;10.060;2023-07-24T19:46:30;13.23;;;8.30;;
1682;SDS011;13252;53.596;10.060;2023-07-24T19:48:58;8.73;;;7.47;;
1682;SDS011;13252;53.596;10.060;2023-07-24T19:51:26;8.60;;;6.77;;
1682;SDS011;13252;53.596;10.060;2023-07-24T19:53:55;10.73;;;6.90;;
1682;SDS011;13252;53.596;10.060;2023-07-24T19:56:22;10.07;;;7.50;;
1682;SDS011;13252;53.596;10.060;2023-07-24T19:58:50;10.60;;;7.40;;
1682;SDS011;13252;53.596;10.060;2023-07-24T20:01:21;7.40;;;6.60;;
1682;SDS011;13252;53.596;10.060;2023-07-24T20:03:50;10.33;;;7.30;;
1682;SDS011;13252;53.596;10.060;2023-07-24T20:06:19;12.77;;;6.80;;
1682;SDS011;13252;53.596;10.060;2023-07-24T20:08:46;11.10;;;7.13;;
1682;SDS011;13252;53.596;10.060;2023-07-24T20:11:15;7.70;;;5.90;;
1682;SDS011;13252;53.596;10.060;2023-07-24T20:13:43;9.17;;;7.10;;
1682;SDS011;13252;53.596;10.060;2023-07-24T20:16:10;11.53;;;6.30;;
1682;SDS011;13252;53.596;10.060;2023-07-24T20:18:40;8.73;;;7.03;;
1682;SDS011;13252;53.596;10.060;2023-07-24T20:21:08;9.60;;;7.17;;
1682;SDS011;13252;53.596;10.060;2023-07-24T20:23:35;12.13;;;7.67;;
1682;SDS011;13252;53.596;10.060;2023-07-24T20:26:03;8.20;;;7.40;;
1682;SDS011;13252;53.596;10.060;2023-07-24T20:28:31;11.33;;;8.17;;
1682;SDS011;13252;53.596;10.060;2023-07-24T20:30:59;10.03;;;8.30;;
1682;SDS011;13252;53.596;10.060;2023-07-24T20:33:27;11.57;;;8.47;;
1682;SDS011;13252;53.596;10.060;2023-07-24T20:35:56;12.03;;;8.67;;
1682;SDS011;13252;53.596;10.060;2023-07-24T20:38:24;12.83;;;8.10;;
1682;SDS011;13252;53.596;10.060;2023-07-24T20:40:53;12.40;;;8.20;;
1682;SDS011;13252;53.596;10.060;2023-07-24T20:43:21;12.10;;;7.20;;
1682;SDS011;13252;53.596;10.060;2023-07-24T20:45:49;10.80;;;7.03;;
1682;SDS011;13252;53.596;10.060;2023-07-24T20:48:18;16.73;;;7.40;;
1682;SDS011;13252;53.596;10.060;2023-07-24T20:50:47;9.27;;;6.77;;
1682;SDS011;13252;53.596;10.060;2023-07-24T20:53:16;12.27;;;6.67;;
1682;SDS011;13252;53.596;10.060;2023-07-24T20:55:43;16.50;;;7.20;;
1682;SDS011;13252;53.596;10.060;2023-07-24T20:58:11;12.73;;;6.80;;
1682;SDS011;13252;53.596;10.060;2023-07-24T21:00:39;12.30;;;5.80;;
1682;SDS011;13252;53.596;10.060;2023-07-24T21:03:06;13.73;;;5.23;;
1682;SDS011;13252;53.596;10.060;2023-07-24T21:05:34;7.57;;;4.00;;
1682;SDS011;13252;53.596;10.060;2023-07-24T21:08:03;9.87;;;4.30;;
1682;SDS011;13252;53.596;10.060;2023-07-24T21:10:33;8.90;;;4.23;;
1682;SDS011;13252;53.596;10.060;2023-07-24T21:13:00;23.23;;;4.60;;
1682;SDS011;13252;53.596;10.060;2023-07-24T21:15:28;9.20;;;4.40;;
1682;SDS011;13252;53.596;10.060;2023-07-24T21:17:56;13.00;;;3.77;;
1682;SDS011;13252;53.596;10.060;2023-07-24T21:20:24;10.47;;;3.30;;
1682;SDS011;13252;53.596;10.060;2023-07-24T21:22:51;8.57;;;2.97;;
1682;SDS011;13252;53.596;10.060;2023-07-24T21:25:19;9.40;;;3.43;;
1682;SDS011;13252;53.596;10.060;2023-07-24T21:27:48;11.23;;;4.00;;
1682;SDS011;13252;53.596;10.060;2023-07-24T21:30:16;7.60;;;3.03;;
1682;SDS011;13252;53.596;10.060;2023-07-24T21:32:45;10.37;;;4.47;;
1682;SDS011;13252;53.596;10.060;2023-07-24T21:35:13;11.90;;;3.50;;
1682;SDS011;13252;53.596;10.060;2023-07-24T21:37:40;10.33;;;4.07;;
1682;SDS011;13252;53.596;10.060;2023-07-24T21:40:08;10.00;;;3.80;;
1682;SDS011;13252;53.596;10.060;2023-07-24T21:42:36;10.93;;;3.77;;
1682;SDS011;13252;53.596;10.060;2023-07-24T21:45:06;10.40;;;3.70;;
1682;SDS011;13252;53.596;10.060;2023-07-24T21:47:34;10.33;;;3.60;;
1682;SDS011;13252;53.596;10.060;2023-07-24T21:50:02;9.47;;;3.70;;
1682;SDS011;13252;53.596;10.060;2023-07-24T21:52:30;13.00;;;3.30;;
1682;SDS011;13252;53.596;10.060;2023-07-24T21:54:57;10.43;;;3.70;;
1682;SDS011;13252;53.596;10.060;2023-07-24T21:57:25;14.70;;;3.80;;
1682;SDS011;13252;53.596;10.060;2023-07-24T21:59:53;9.80;;;3.43;;
1682;SDS011;13252;53.596;10.060;2023-07-24T22:02:22;14.67;;;3.80;;
1682;SDS011;13252;53.596;10.060;2023-07-24T22:04:50;8.00;;;3.90;;
1682;SDS011;13252;53.596;10.060;2023-07-24T22:07:18;15.07;;;3.90;;
1682;SDS011;13252;53.596;10.060;2023-07-24T22:09:45;20.57;;;4.73;;
1682;SDS011;13252;53.596;10.060;2023-07-24T22:12:13;14.30;;;4.30;;
1682;SDS011;13252;53.596;10.060;2023-07-24T22:14:41;16.70;;;4.13;;
1682;SDS011;13252;53.596;10.060;2023-07-24T22:17:08;14.03;;;4.60;;
1682;SDS011;13252;53.596;10.060;2023-07-24T22:19:37;11.53;;;3.83;;
1682;SDS011;13252;53.596;10.060;2023-07-24T22:22:05;9.17;;;4.60;;
1682;SDS011;13252;53.596;10.060;2023-07-24T22:24:33;11.50;;;3.83;;
1682;SDS011;13252;53.596;10.060;2023-07-24T22:27:03;16.50;;;5.80;;
1682;SDS011;13252;53.596;10.060;2023-07-24T22:29:32;20.73;;;3.80;;
1682;SDS011;13252;53.596;10.060;2023-07-24T22:32:00;9.03;;;3.30;;
1682;SDS011;13252;53.596;10.060;2023-07-24T22:34:28;11.00;;;3.93;;
1682;SDS011;13252;53.596;10.060;2023-07-24T22:36:57;11.07;;;4.70;;
1682;SDS011;13252;53.596;10.060;2023-07-24T22:39:25;10.07;;;4.00;;
1682;SDS011;13252;53.596;10.060;2023-07-24T22:41:52;10.60;;;4.33;;
1682;SDS011;13252;53.596;10.060;2023-07-24T22:44:20;12.13;;;3.73;;
1682;SDS011;13252;53.596;10.060;2023-07-24T22:46:48;16.67;;;4.00;;
1682;SDS011;13252;53.596;10.060;2023-07-24T22:49:17;13.43;;;4.43;;
1682;SDS011;13252;53.596;10.060;2023-07-24T22:51:44;12.70;;;4.27;;
1682;SDS011;13252;53.596;10.060;2023-07-24T22:54:13;18.60;;;5.30;;
1682;SDS011;13252;53.596;10.060;2023-07-24T22:56:41;12.33;;;4.57;;
1682;SDS011;13252;53.596;10.060;2023-07-24T22:59:19;13.20;;;4.17;;
1682;SDS011;13252;53.596;10.060;2023-07-24T23:01:48;12.80;;;4.23;;
1682;SDS011;13252;53.596;10.060;2023-07-24T23:04:17;24.63;;;4.70;;
1682;SDS011;13252;53.596;10.060;2023-07-24T23:06:47;9.23;;;3.70;;
1682;SDS011;13252;53.596;10.060;2023-07-24T23:09:16;9.67;;;4.83;;
1682;SDS011;13252;53.596;10.060;2023-07-24T23:11:44;9.53;;;4.13;;
1682;SDS011;13252;53.596;10.060;2023-07-24T23:14:12;6.20;;;3.77;;
1682;SDS011;13252;53.596;10.060;2023-07-24T23:16:40;13.93;;;4.00;;
1682;SDS011;13252;53.596;10.060;2023-07-24T23:19:07;11.37;;;4.43;;
1682;SDS011;13252;53.596;10.060;2023-07-24T23:21:35;11.63;;;4.40;;
1682;SDS011;13252;53.596;10.060;2023-07-24T23:24:03;10.57;;;3.90;;
1682;SDS011;13252;53.596;10.060;2023-07-24T23:26:33;11.87;;;4.53;;
1682;SDS011;13252;53.596;10.060;2023-07-24T23:29:00;11.30;;;4.83;;
1682;SDS011;13252;53.596;10.060;2023-07-24T23:31:28;10.43;;;4.70;;
1682;SDS011;13252;53.596;10.060;2023-07-24T23:33:57;17.60;;;4.77;;
1682;SDS011;13252;53.596;10.060;2023-07-24T23:36:25;20.80;;;7.17;;
1682;SDS011;13252;53.596;10.060;2023-07-24T23:38:52;14.40;;;5.17;;
1682;SDS011;13252;53.596;10.060;2023-07-24T23:41:20;13.90;;;5.90;;
1682;SDS011;13252;53.596;10.060;2023-07-24T23:43:49;15.50;;;5.63;;
1682;SDS011;13252;53.596;10.060;2023-07-24T23:46:17;10.30;;;5.13;;
1682;SDS011;13252;53.596;10.060;2023-07-24T23:48:44;15.03;;;5.23;;
1682;SDS011;13252;53.596;10.060;2023-07-24T23:51:13;9.57;;;4.17;;
1682;SDS011;13252;53.596;10.060;2023-07-24T23:53:41;11.80;;;4.93;;
1682;SDS011;13252;53.596;10.060;2023-07-24T23:56:09;16.23;;;5.13;;
1682;SDS011;13252;53.596;10.060;2023-07-24T23:58:37;11.10;;;5.53;;
